KAGS/AGS METAR and TAF weather

Enter ICAO airport designator
Station Type Date Time Source
KAGS METAR 2021/06/22 22:53 UTC NOAA

KAGS 222253Z 24006KT 10SM FEW020 SCT070 27/22 A2989 RMK AO2 SLP120 T02670222


Station Type Date Time Source
KAGS Decoded METAR 2021/06/22 22:53 UTC NOAA

AUGUSTA BUSH FIELD, GA, United States (KAGS) 33-22N 081-58W 44M
Jun 22, 2021 - 06:53 PM EDT / 2021.06.22 2253 UTC
Wind: from the WSW (240 degrees) at 7 MPH (6 KT):0
Visibility: 10 mile(s):0
Sky conditions: partly cloudy
Temperature: 80.1 F (26.7 C)
Dew Point: 72.0 F (22.2 C)
Relative Humidity: 76%
Pressure (altimeter): 29.89 in. Hg (1012 hPa)
ob: KAGS 222253Z 24006KT 10SM FEW020 SCT070 27/22 A2989 RMK AO2 SLP120 T02670222
cycle: 23

Station Type Date Time Source
KAGS TAF 2021/06/22 21:46 UTC NOAA

TAF
AMD KAGS 222044Z 2221/2318 24010KT P6SM -SHRA SCT025 BKN050
TEMPO 2221/2223 BKN025
FM230000 25005KT P6SM SCT025
FM230600 35003KT P6SM SCT025
FM231500 05008KT P6SM SCT040

Example: see airport list